CCGS Cape Naden — CFN5482 — position and weather

sailwx.info

Track history (hours):
 
Tides and Currents Weather Stations Pressure Air Temp Water Temp Dewpoint Dewpoint Depression Visibility Wind Speed Wind Dir Waves Ship Positions

CCGS Cape Naden

Last reported at 2017-Nov-17 23:53 UTC. Time now 2017-Nov-20 19:28 UTC.
Position N 48°51' W 123°30'.

Length 15 m; draft 0.8 m.

Type: SAR. MMSI: 316017162.

Date/timePositionNaut miles runAvg speedWind from/ knotsBaromVisibWave heightAir tempDewpointWater temp
2017-Nov-17 23:53N 48°51' W 123°30'0 0.0
2017-Nov-17 19:35N 48°51' W 123°30'0 0.0
2017-Nov-17 19:17N 48°51' W 123°30'  
2017-Nov-15 12:17N 48°51' W 123°30'  
2017-Nov-11 16:11N 48°51' W 123°30'0 0.0
2017-Nov-11 15:59N 48°51' W 123°30'0 0.0
2017-Nov-11 14:23N 48°51' W 123°30'0 0.0
2017-Nov-11 05:35N 48°51' W 123°30'0 0.0
2017-Nov-11 01:53N 48°51' W 123°30'0 0.0
2017-Nov-11 01:11N 48°51' W 123°30'0 0.0
2017-Nov-11 00:41N 48°51' W 123°30'0 0.0
2017-Nov-11 00:23N 48°51' W 123°30'1 1.5
2017-Nov-10 23:59N 48°51' W 123°29'7 0.9
2017-Nov-10 16:37N 48°46' W 123°22'221.8
2017-Nov-10 16:30N 48°48' W 123°24'5 9.2
2017-Nov-10 15:59N 48°51' W 123°30'0 0.0
2017-Nov-10 15:11N 48°51' W 123°30'0 0.0
2017-Nov-10 13:53N 48°51' W 123°30'0 0.0
2017-Nov-10 13:11N 48°51' W 123°30'0 0.0
2017-Nov-10 12:53N 48°51' W 123°30'0 0.0
2017-Nov-10 12:29N 48°51' W 123°30'0 0.0
2017-Nov-10 11:59N 48°51' W 123°30'0 0.0
2017-Nov-10 11:29N 48°51' W 123°30'0 0.0
2017-Nov-10 09:05N 48°51' W 123°30'0 0.0
2017-Nov-10 08:47N 48°51' W 123°30'0 0.0
2017-Nov-10 01:53N 48°51' W 123°30'0 0.0
2017-Nov-09 23:49N 48°51' W 123°30'2 7.5
2017-Nov-09 23:30N 48°51' W 123°26'0 1.0
2017-Nov-09 23:00N 48°51' W 123°27'2 0.6
2017-Nov-09 19:31N 48°51' W 123°30'0 0.0
2017-Nov-09 19:19N 48°51' W 123°30'0 0.0
2017-Nov-09 18:55N 48°51' W 123°30'0 0.0
2017-Nov-09 17:19N 48°51' W 123°30'0 0.0
2017-Nov-09 16:49N 48°51' W 123°30'0 0.0
2017-Nov-09 16:25N 48°51' W 123°30'0 0.0
2017-Nov-09 15:49N 48°51' W 123°30'0 0.0
2017-Nov-09 15:25N 48°51' W 123°30'0 0.0
2017-Nov-09 14:55N 48°51' W 123°30'0 0.0
2017-Nov-09 14:25N 48°51' W 123°30'0 0.0
2017-Nov-09 11:55N 48°51' W 123°30'0 0.0
2017-Nov-09 11:25N 48°51' W 123°30'0 0.0
2017-Nov-09 10:07N 48°51' W 123°30'0 0.0
2017-Nov-09 07:55N 48°51' W 123°30'0 0.0
2017-Nov-09 07:25N 48°51' W 123°30'0 0.0
2017-Nov-09 06:37N 48°51' W 123°30'0 0.0
2017-Nov-09 06:01N 48°51' W 123°30'0 0.0
2017-Nov-09 05:55N 48°51' W 123°30'0 0.0
2017-Nov-09 04:37N 48°51' W 123°30'0 0.0
2017-Nov-09 04:25N 48°51' W 123°30'0 0.0
2017-Nov-09 03:49N 48°51' W 123°30'0 0.0
2017-Nov-09 02:25N 48°51' W 123°30'0 0.0
2017-Nov-09 00:13N 48°51' W 123°30'0 0.0
2017-Nov-08 23:55N 48°51' W 123°30'0 0.0
2017-Nov-08 23:19N 48°51' W 123°30'0 0.0
2017-Nov-08 22:49N 48°51' W 123°30'0 0.0
2017-Nov-08 22:25N 48°51' W 123°30'0 0.0
2017-Nov-08 21:49N 48°51' W 123°30'0 0.0
2017-Nov-08 21:07N 48°51' W 123°30'0 0.0
2017-Nov-08 20:43N 48°51' W 123°30'0 0.0
2017-Nov-08 20:07N 48°51' W 123°30'0 0.0
2017-Nov-08 19:55N 48°51' W 123°30'0 0.0
2017-Nov-08 19:25N 48°51' W 123°30'0 0.0
2017-Nov-08 18:31N 48°51' W 123°30'0 0.0
2017-Nov-08 17:25N 48°51' W 123°30'0 0.0
2017-Nov-08 16:49N 48°51' W 123°30'0 0.0
2017-Nov-08 15:07N 48°51' W 123°30'0 0.0
2017-Nov-08 12:49N 48°51' W 123°30'0 0.0
2017-Nov-08 07:31N 48°51' W 123°30'0 0.0
2017-Nov-08 07:25N 48°51' W 123°30'0 0.0
2017-Nov-08 04:07N 48°51' W 123°30'  
Track history (hours):
 
Tides and Currents Weather Stations Pressure Air Temp Water Temp Dewpoint Dewpoint Depression Visibility Wind Speed Wind Dir Waves Ship Positions

CCGS Cape Naden

Last reported at 2017-Nov-17 23:53 UTC. Time now 2017-Nov-20 19:28 UTC.
Position N 48°51' W 123°30'.

Length 15 m; draft 0.8 m.

Type: SAR. MMSI: 316017162.

Date/timePositionNaut miles runAvg speedWind from/ knotsBaromVisibWave heightAir tempDewpointWater temp
2017-Nov-17 23:53N 48°51' W 123°30'0 0.0
2017-Nov-17 19:35N 48°51' W 123°30'0 0.0
2017-Nov-17 19:17N 48°51' W 123°30'  
2017-Nov-15 12:17N 48°51' W 123°30'  
2017-Nov-11 16:11N 48°51' W 123°30'0 0.0
2017-Nov-11 15:59N 48°51' W 123°30'0 0.0
2017-Nov-11 14:23N 48°51' W 123°30'0 0.0
2017-Nov-11 05:35N 48°51' W 123°30'0 0.0
2017-Nov-11 01:53N 48°51' W 123°30'0 0.0
2017-Nov-11 01:11N 48°51' W 123°30'0 0.0
2017-Nov-11 00:41N 48°51' W 123°30'0 0.0
2017-Nov-11 00:23N 48°51' W 123°30'1 1.5
2017-Nov-10 23:59N 48°51' W 123°29'7 0.9
2017-Nov-10 16:37N 48°46' W 123°22'221.8
2017-Nov-10 16:30N 48°48' W 123°24'5 9.2
2017-Nov-10 15:59N 48°51' W 123°30'0 0.0
2017-Nov-10 15:11N 48°51' W 123°30'0 0.0
2017-Nov-10 13:53N 48°51' W 123°30'0 0.0
2017-Nov-10 13:11N 48°51' W 123°30'0 0.0
2017-Nov-10 12:53N 48°51' W 123°30'0 0.0
2017-Nov-10 12:29N 48°51' W 123°30'0 0.0
2017-Nov-10 11:59N 48°51' W 123°30'0 0.0
2017-Nov-10 11:29N 48°51' W 123°30'0 0.0
2017-Nov-10 09:05N 48°51' W 123°30'0 0.0
2017-Nov-10 08:47N 48°51' W 123°30'0 0.0
2017-Nov-10 01:53N 48°51' W 123°30'0 0.0
2017-Nov-09 23:49N 48°51' W 123°30'2 7.5
2017-Nov-09 23:30N 48°51' W 123°26'0 1.0
2017-Nov-09 23:00N 48°51' W 123°27'2 0.6
2017-Nov-09 19:31N 48°51' W 123°30'0 0.0
2017-Nov-09 19:19N 48°51' W 123°30'0 0.0
2017-Nov-09 18:55N 48°51' W 123°30'0 0.0
2017-Nov-09 17:19N 48°51' W 123°30'0 0.0
2017-Nov-09 16:49N 48°51' W 123°30'0 0.0
2017-Nov-09 16:25N 48°51' W 123°30'0 0.0
2017-Nov-09 15:49N 48°51' W 123°30'0 0.0
2017-Nov-09 15:25N 48°51' W 123°30'0 0.0
2017-Nov-09 14:55N 48°51' W 123°30'0 0.0
2017-Nov-09 14:25N 48°51' W 123°30'0 0.0
2017-Nov-09 11:55N 48°51' W 123°30'0 0.0
2017-Nov-09 11:25N 48°51' W 123°30'0 0.0
2017-Nov-09 10:07N 48°51' W 123°30'0 0.0
2017-Nov-09 07:55N 48°51' W 123°30'0 0.0
2017-Nov-09 07:25N 48°51' W 123°30'0 0.0
2017-Nov-09 06:37N 48°51' W 123°30'0 0.0
2017-Nov-09 06:01N 48°51' W 123°30'0 0.0
2017-Nov-09 05:55N 48°51' W 123°30'0 0.0
2017-Nov-09 04:37N 48°51' W 123°30'0 0.0
2017-Nov-09 04:25N 48°51' W 123°30'0 0.0
2017-Nov-09 03:49N 48°51' W 123°30'0 0.0
2017-Nov-09 02:25N 48°51' W 123°30'0 0.0
2017-Nov-09 00:13N 48°51' W 123°30'0 0.0
2017-Nov-08 23:55N 48°51' W 123°30'0 0.0
2017-Nov-08 23:19N 48°51' W 123°30'0 0.0
2017-Nov-08 22:49N 48°51' W 123°30'0 0.0
2017-Nov-08 22:25N 48°51' W 123°30'0 0.0
2017-Nov-08 21:49N 48°51' W 123°30'0 0.0
2017-Nov-08 21:07N 48°51' W 123°30'0 0.0
2017-Nov-08 20:43N 48°51' W 123°30'0 0.0
2017-Nov-08 20:07N 48°51' W 123°30'0 0.0
2017-Nov-08 19:55N 48°51' W 123°30'0 0.0
2017-Nov-08 19:25N 48°51' W 123°30'0 0.0
2017-Nov-08 18:31N 48°51' W 123°30'0 0.0
2017-Nov-08 17:25N 48°51' W 123°30'0 0.0
2017-Nov-08 16:49N 48°51' W 123°30'0 0.0
2017-Nov-08 15:07N 48°51' W 123°30'0 0.0
2017-Nov-08 12:49N 48°51' W 123°30'0 0.0
2017-Nov-08 07:31N 48°51' W 123°30'0 0.0
2017-Nov-08 07:25N 48°51' W 123°30'0 0.0
2017-Nov-08 04:07N 48°51' W 123°30'  

Dump ship's entire track history